Time;durP1;ratioP1;P1;durP2;ratioP2;P2;SDS_P1;SDS_P2;PMS_P1;PMS_P2;Temp;Humidity;BMP_temperature;BMP_pressure;BME280_temperature;BME280_humidity;BME280_pressure;Samples;Min_cycle;Max_cycle;Signal;HPM_P1;HPM_P2
2021/09/17 00:01:02;;;;;;;;;;;;;;;14.06;nan;100671.50;4973742;28;19972;-74
2021/09/17 00:03:27;;;;;;;;;;;;;;;14.04;nan;100670.88;4990363;28;20547;-74
2021/09/17 00:05:53;;;;;;;;;;;;;;;14.09;nan;100670.38;4991168;28;19992;-74
2021/09/17 00:08:18;;;;;;;;;;;;;;;14.03;nan;100662.06;4990583;28;19913;-74
2021/09/17 00:10:43;;;;;;;;;;;;;;;13.96;nan;100662.91;4991192;28;20294;-74
2021/09/17 00:13:08;;;;;;;;;;;;;;;13.88;nan;100660.28;4990697;28;20008;-74
2021/09/17 00:15:34;;;;;;;;;;;;;;;13.79;nan;100660.28;4982301;28;20365;-74
2021/09/17 00:17:59;;;;;;;;;;;;;;;13.72;nan;100661.97;4988823;28;20510;-74
2021/09/17 00:20:24;;;;;;;;;;;;;;;13.65;nan;100660.16;4972856;28;19924;-74
2021/09/17 00:22:49;;;;;;;;;;;;;;;13.59;nan;100662.50;4989215;28;19930;-74
2021/09/17 00:25:15;;;;;;;;;;;;;;;13.56;nan;100660.19;4972945;28;19913;-74
2021/09/17 00:27:40;;;;;;;;;;;;;;;13.53;nan;100665.00;4986058;28;20319;-74
2021/09/17 00:30:06;;;;;;;;;;;;;;;13.48;nan;100662.00;4988281;28;19913;-74
2021/09/17 00:32:31;;;;;;;;;;;;;;;13.42;nan;100655.53;4990477;28;20418;-74
2021/09/17 00:34:57;;;;;;;;;;;;;;;13.37;nan;100661.34;4990417;28;19920;-74
2021/09/17 00:37:22;;;;;;;;;;;;;;;13.35;nan;100666.00;4990165;28;19922;-74
2021/09/17 00:39:47;;;;;;;;;;;;;;;13.32;nan;100669.00;4973007;28;19914;-74
2021/09/17 00:42:12;;;;;;;;;;;;;;;13.29;nan;100661.34;4993320;28;19921;-74
2021/09/17 00:44:37;;;;;;;;;;;;;;;13.24;nan;100658.34;4997182;28;19945;-74
2021/09/17 00:47:03;;;;;;;;;;;;;;;13.21;nan;100660.50;4997222;28;19917;-74
2021/09/17 00:49:28;;;;;;;;;;;;;;;13.16;nan;100653.84;4996404;28;19924;-74
2021/09/17 00:51:53;;;;;;;;;;;;;;;13.18;nan;100659.00;4997070;28;19918;-74
2021/09/17 00:54:19;;;;;;;;;;;;;;;13.18;nan;100656.34;4996767;28;19955;-74
2021/09/17 00:56:45;;;;;;;;;;;;;;;13.16;nan;100655.69;4997386;28;19989;-74
2021/09/17 00:59:10;;;;;;;;;;;;;;;13.11;nan;100658.00;4995804;28;19917;-74
2021/09/17 01:01:36;;;;;;;;;;;;;;;13.09;nan;100647.53;4996163;28;19928;-74
2021/09/17 01:04:02;;;;;;;;;;;;;;;13.07;nan;100651.38;4995214;28;19925;-74
2021/09/17 01:06:28;;;;;;;;;;;;;;;13.05;nan;100648.84;4994992;28;20384;-74
2021/09/17 01:08:53;;;;;;;;;;;;;;;13.03;nan;100653.50;4994356;28;19994;-74
2021/09/17 01:11:19;;;;;;;;;;;;;;;12.99;nan;100648.69;4994151;28;19914;-74
2021/09/17 01:13:44;;;;;;;;;;;;;;;12.95;nan;100651.69;4994160;28;20169;-74
2021/09/17 01:16:10;;;;;;;;;;;;;;;12.92;nan;100651.19;4976469;28;20004;-74
2021/09/17 01:18:35;;;;;;;;;;;;;;;12.88;nan;100653.31;4993453;28;20376;-74
2021/09/17 01:21:01;;;;;;;;;;;;;;;12.84;nan;100649.31;4993535;28;19913;-74
2021/09/17 01:23:27;;;;;;;;;;;;;;;12.88;nan;100645.34;4993058;28;20008;-74
2021/09/17 01:25:52;;;;;;;;;;;;;;;12.88;nan;100644.53;4993617;28;19992;-74
2021/09/17 01:28:24;;;;;;;;;;;;;;;12.87;nan;100643.72;4992958;28;19914;-74
2021/09/17 01:30:50;;;;;;;;;;;;;;;12.82;nan;100646.00;4988824;28;19920;-74
2021/09/17 01:33:15;;;;;;;;;;;;;;;12.81;nan;100643.53;4993751;28;20001;-74
2021/09/17 01:35:40;;;;;;;;;;;;;;;12.81;nan;100643.53;4994458;28;20326;-73
2021/09/17 01:38:05;;;;;;;;;;;;;;;12.77;nan;100637.72;4993146;28;19913;-73
2021/09/17 01:40:30;;;;;;;;;;;;;;;12.86;nan;100639.38;4993146;28;19914;-74
2021/09/17 01:42:56;;;;;;;;;;;;;;;12.89;nan;100636.41;4993338;28;19925;-74
2021/09/17 01:45:21;;;;;;;;;;;;;;;12.94;nan;100631.44;4993272;28;19913;-74
2021/09/17 01:47:46;;;;;;;;;;;;;;;12.99;nan;100625.66;4993407;28;19947;-74
2021/09/17 01:50:12;;;;;;;;;;;;;;;13.00;nan;100631.78;4993190;28;19917;-74
2021/09/17 01:52:37;;;;;;;;;;;;;;;12.95;nan;100626.97;4993116;28;19914;-74
2021/09/17 01:55:02;;;;;;;;;;;;;;;12.89;nan;100627.59;4994160;28;19913;-74
2021/09/17 01:57:28;;;;;;;;;;;;;;;12.87;nan;100617.19;4976196;28;19914;-74
2021/09/17 01:59:53;;;;;;;;;;;;;;;12.88;nan;100623.31;4992902;28;20368;-74
2021/09/17 02:02:18;;;;;;;;;;;;;;;12.93;nan;100618.34;4974977;28;19917;-74
2021/09/17 02:04:43;;;;;;;;;;;;;;;12.93;nan;100616.50;4992227;28;19944;-74
2021/09/17 02:07:08;;;;;;;;;;;;;;;12.90;nan;100616.00;4993229;28;20318;-74
2021/09/17 02:09:34;;;;;;;;;;;;;;;12.87;nan;100613.66;4975564;28;19967;-74
2021/09/17 02:11:59;;;;;;;;;;;;;;;12.88;nan;100612.69;4975182;28;19913;-74
2021/09/17 02:14:24;;;;;;;;;;;;;;;12.91;nan;100612.34;4989628;28;19921;-74
2021/09/17 02:16:49;;;;;;;;;;;;;;;13.00;nan;100618.50;4985260;28;19921;-74
2021/09/17 02:19:14;;;;;;;;;;;;;;;12.97;nan;100619.66;4992154;28;19960;-74
2021/09/17 02:21:40;;;;;;;;;;;;;;;12.99;nan;100611.53;4992266;28;20035;-74
2021/09/17 02:24:06;;;;;;;;;;;;;;;13.01;nan;100610.34;4992000;28;19914;-74
2021/09/17 02:26:32;;;;;;;;;;;;;;;13.05;nan;100613.53;4992176;28;19996;-74
2021/09/17 02:28:57;;;;;;;;;;;;;;;13.08;nan;100614.00;4966793;28;19949;-74
2021/09/17 02:31:22;;;;;;;;;;;;;;;13.19;nan;100610.22;4992159;28;19917;-74
2021/09/17 02:33:47;;;;;;;;;;;;;;;13.24;nan;100613.19;4992110;28;19914;-74
2021/09/17 02:36:12;;;;;;;;;;;;;;;13.21;nan;100610.88;4992482;28;19914;-73
2021/09/17 02:38:38;;;;;;;;;;;;;;;13.30;nan;100611.72;4991719;28;19913;-74
2021/09/17 02:41:03;;;;;;;;;;;;;;;13.26;nan;100613.84;4991993;28;19972;-75
2021/09/17 02:43:28;;;;;;;;;;;;;;;13.23;nan;100614.19;4991534;28;20362;-74
2021/09/17 02:45:53;;;;;;;;;;;;;;;13.21;nan;100607.41;4991879;28;20341;-74
2021/09/17 02:48:19;;;;;;;;;;;;;;;13.23;nan;100608.03;4991978;28;20383;-74
2021/09/17 02:50:44;;;;;;;;;;;;;;;13.25;nan;100595.41;4990490;28;19949;-74
2021/09/17 02:53:09;;;;;;;;;;;;;;;13.29;nan;100608.22;4991263;28;19914;-74
2021/09/17 02:55:35;;;;;;;;;;;;;;;13.31;nan;100600.94;4973868;28;19913;-74
2021/09/17 02:58:03;;;;;;;;;;;;;;;13.38;nan;100604.56;4991567;28;20165;-74
2021/09/17 03:00:29;;;;;;;;;;;;;;;13.39;nan;100605.41;4974050;28;19921;-74
2021/09/17 03:02:54;;;;;;;;;;;;;;;13.48;nan;100603.56;4991228;28;19918;-74
2021/09/17 03:05:19;;;;;;;;;;;;;;;13.49;nan;100600.75;4983033;28;20386;-74
2021/09/17 03:07:44;;;;;;;;;;;;;;;13.51;nan;100595.25;4990601;28;19918;-74
2021/09/17 03:10:10;;;;;;;;;;;;;;;13.48;nan;100593.75;4974435;28;19920;-74
2021/09/17 03:12:35;;;;;;;;;;;;;;;13.52;nan;100600.41;4991394;28;19914;-74
2021/09/17 03:15:00;;;;;;;;;;;;;;;13.53;nan;100588.75;4985576;28;19967;-74
2021/09/17 03:17:26;;;;;;;;;;;;;;;13.57;nan;100590.09;4973391;28;19965;-74
2021/09/17 03:19:51;;;;;;;;;;;;;;;13.55;nan;100586.78;4991162;28;20363;-74
2021/09/17 03:22:16;;;;;;;;;;;;;;;13.62;nan;100586.94;4973543;28;19918;-74
2021/09/17 03:24:41;;;;;;;;;;;;;;;13.57;nan;100583.97;4990179;28;19935;-74
2021/09/17 03:27:07;;;;;;;;;;;;;;;13.61;nan;100585.28;4991153;28;19972;-74
2021/09/17 03:29:33;;;;;;;;;;;;;;;13.65;nan;100583.09;4973154;28;20120;-74
2021/09/17 03:31:58;;;;;;;;;;;;;;;13.70;nan;100580.75;4988672;28;19917;-74
2021/09/17 03:34:23;;;;;;;;;;;;;;;13.70;nan;100578.91;4991036;28;19922;-74
2021/09/17 03:36:49;;;;;;;;;;;;;;;13.68;nan;100580.94;4991036;28;19936;-74
2021/09/17 03:39:14;;;;;;;;;;;;;;;13.69;nan;100573.78;4990648;28;19921;-74
2021/09/17 03:41:41;;;;;;;;;;;;;;;13.67;nan;100573.97;4991390;28;19913;-74
2021/09/17 03:44:06;;;;;;;;;;;;;;;13.74;nan;100582.09;4990747;28;19920;-74
2021/09/17 03:46:31;;;;;;;;;;;;;;;13.74;nan;100579.44;4988253;28;19921;-74
2021/09/17 03:48:57;;;;;;;;;;;;;;;13.76;nan;100575.59;4985331;28;19959;-74
2021/09/17 03:51:23;;;;;;;;;;;;;;;13.72;nan;100576.94;4972350;28;20272;-74
2021/09/17 03:53:49;;;;;;;;;;;;;;;13.70;nan;100576.25;4990765;28;20366;-74
2021/09/17 03:56:14;;;;;;;;;;;;;;;13.73;nan;100575.94;4972926;28;19921;-74
2021/09/17 03:58:39;;;;;;;;;;;;;;;13.76;nan;100572.94;4990508;28;19924;-75
2021/09/17 04:01:04;;;;;;;;;;;;;;;13.86;nan;100574.56;4990975;28;20329;-74
2021/09/17 04:03:29;;;;;;;;;;;;;;;13.76;nan;100564.97;4990206;28;20011;-74
2021/09/17 04:05:55;;;;;;;;;;;;;;;13.81;nan;100567.09;4973108;28;19964;-74
2021/09/17 04:08:20;;;;;;;;;;;;;;;13.79;nan;100572.59;4990552;28;20000;-74
2021/09/17 04:10:45;;;;;;;;;;;;;;;13.74;nan;100579.44;4990946;28;20004;-74
2021/09/17 04:13:10;;;;;;;;;;;;;;;13.77;nan;100587.03;4990200;28;19913;-74
2021/09/17 04:15:35;;;;;;;;;;;;;;;13.77;nan;100571.91;4985173;28;19914;-74
2021/09/17 04:18:00;;;;;;;;;;;;;;;13.79;nan;100579.72;4995725;28;19921;-74
2021/09/17 04:20:26;;;;;;;;;;;;;;;13.88;nan;100575.22;4996656;28;19917;-74
2021/09/17 04:22:51;;;;;;;;;;;;;;;13.81;nan;100572.41;4995383;28;19925;-74
2021/09/17 04:25:17;;;;;;;;;;;;;;;13.78;nan;100570.94;4995326;28;19913;-74
2021/09/17 04:27:45;;;;;;;;;;;;;;;13.73;nan;100581.25;4992394;28;20001;-74
2021/09/17 04:30:10;;;;;;;;;;;;;;;13.66;nan;100568.81;4996537;28;19913;-74
2021/09/17 04:32:36;;;;;;;;;;;;;;;13.60;nan;100576.47;4996873;28;19914;-75
2021/09/17 04:35:01;;;;;;;;;;;;;;;13.58;nan;100574.97;4996260;28;19929;-74
2021/09/17 04:37:27;;;;;;;;;;;;;;;13.56;nan;100574.31;4979058;28;19914;-74
2021/09/17 04:39:52;;;;;;;;;;;;;;;13.57;nan;100573.31;4997115;28;20302;-75
2021/09/17 04:42:17;;;;;;;;;;;;;;;13.53;nan;100578.13;4994148;28;19918;-74
2021/09/17 04:44:43;;;;;;;;;;;;;;;13.59;nan;100579.31;4979637;28;19931;-74
2021/09/17 04:47:08;;;;;;;;;;;;;;;13.57;nan;100574.16;4996317;28;19913;-74
2021/09/17 04:49:33;;;;;;;;;;;;;;;13.56;nan;100579.63;5002077;28;20363;-74
2021/09/17 04:51:58;;;;;;;;;;;;;;;13.49;nan;100583.97;4978350;28;19914;-74
2021/09/17 04:54:23;;;;;;;;;;;;;;;13.46;nan;100584.31;4996311;28;19914;-74
2021/09/17 04:56:49;;;;;;;;;;;;;;;13.51;nan;100592.59;4995296;28;19922;-75
2021/09/17 04:59:14;;;;;;;;;;;;;;;13.46;nan;100592.28;4997214;28;19944;-74
2021/09/17 05:01:39;;;;;;;;;;;;;;;13.41;nan;100594.63;4997001;28;19924;-74
2021/09/17 05:04:04;;;;;;;;;;;;;;;13.41;nan;100587.47;4996053;28;19914;-74
2021/09/17 05:06:31;;;;;;;;;;;;;;;13.41;nan;100595.44;4994460;28;19983;-74
2021/09/17 05:08:57;;;;;;;;;;;;;;;13.41;nan;100586.66;4996431;28;20012;-74
2021/09/17 05:11:23;;;;;;;;;;;;;;;13.47;nan;100592.13;4996109;28;20008;-74
2021/09/17 05:13:48;;;;;;;;;;;;;;;13.38;nan;100591.28;4992699;28;19944;-74
2021/09/17 05:16:13;;;;;;;;;;;;;;;13.34;nan;100595.28;4996483;28;19917;-74
2021/09/17 05:18:38;;;;;;;;;;;;;;;13.40;nan;100595.63;4996232;28;20008;-75
2021/09/17 05:21:03;;;;;;;;;;;;;;;13.32;nan;100599.94;4994102;28;19922;-74
2021/09/17 05:23:29;;;;;;;;;;;;;;;13.30;nan;100595.78;4996646;28;20436;-74
2021/09/17 05:25:54;;;;;;;;;;;;;;;13.30;nan;100593.97;4996604;28;19914;-74
2021/09/17 05:28:19;;;;;;;;;;;;;;;13.41;nan;100592.78;4988807;28;19917;-74
2021/09/17 05:30:44;;;;;;;;;;;;;;;13.38;nan;100599.25;4992064;28;19924;-74
2021/09/17 05:33:09;;;;;;;;;;;;;;;13.34;nan;100597.94;4989143;28;19972;-74
2021/09/17 05:35:35;;;;;;;;;;;;;;;13.29;nan;100594.94;4993819;28;19913;-74
2021/09/17 05:38:00;;;;;;;;;;;;;;;13.38;nan;100601.09;4993019;28;19913;-74
2021/09/17 05:40:25;;;;;;;;;;;;;;;13.37;nan;100596.75;4992749;28;19914;-74
2021/09/17 05:42:51;;;;;;;;;;;;;;;13.39;nan;100597.44;4988970;28;19922;-74
2021/09/17 05:45:16;;;;;;;;;;;;;;;13.40;nan;100592.97;4993187;28;20020;-75
2021/09/17 05:47:41;;;;;;;;;;;;;;;13.47;nan;100593.94;4992675;28;19921;-74
2021/09/17 05:50:07;;;;;;;;;;;;;;;13.42;nan;100594.44;4975440;28;19971;-74
2021/09/17 05:52:32;;;;;;;;;;;;;;;13.44;nan;100596.91;4992601;28;19917;-74
2021/09/17 05:54:58;;;;;;;;;;;;;;;13.69;nan;100592.41;4975416;28;20366;-74
2021/09/17 05:57:23;;;;;;;;;;;;;;;14.09;nan;100594.09;4992298;28;20270;-75
2021/09/17 05:59:48;;;;;;;;;;;;;;;14.54;nan;100594.34;4991710;28;20012;-74
2021/09/17 06:02:13;;;;;;;;;;;;;;;14.88;nan;100595.81;4991950;28;19917;-75
2021/09/17 06:04:38;;;;;;;;;;;;;;;15.38;nan;100603.19;4992064;28;19932;-75
2021/09/17 06:07:04;;;;;;;;;;;;;;;15.53;nan;100589.06;4991999;28;19917;-74
2021/09/17 06:09:29;;;;;;;;;;;;;;;15.70;nan;100593.22;4992766;28;19953;-75
2021/09/17 06:11:54;;;;;;;;;;;;;;;16.07;nan;100591.47;4992655;28;19953;-74
2021/09/17 06:14:20;;;;;;;;;;;;;;;16.70;nan;100597.91;4992207;28;19941;-75
2021/09/17 06:16:45;;;;;;;;;;;;;;;17.20;nan;100601.47;4991595;28;19913;-75
2021/09/17 06:19:10;;;;;;;;;;;;;;;17.47;nan;100603.53;4991765;28;19968;-75
2021/09/17 06:21:35;;;;;;;;;;;;;;;17.33;nan;100607.97;4991476;28;19999;-75
2021/09/17 06:24:01;;;;;;;;;;;;;;;17.42;nan;100609.44;4992353;28;20433;-75
2021/09/17 06:26:33;;;;;;;;;;;;;;;17.76;nan;100608.66;4992738;28;19910;-75
2021/09/17 06:29:00;;;;;;;;;;;;;;;18.24;nan;100606.03;4992458;28;19914;-75
2021/09/17 06:31:25;;;;;;;;;;;;;;;18.66;nan;100613.97;4989146;28;19917;-75
2021/09/17 06:33:51;;;;;;;;;;;;;;;18.99;nan;100610.56;4992680;28;20374;-75
2021/09/17 06:36:16;;;;;;;;;;;;;;;19.21;nan;100612.03;4975923;28;20433;-76
2021/09/17 06:38:41;;;;;;;;;;;;;;;19.46;nan;100614.06;4989142;28;19914;-75
2021/09/17 06:41:06;;;;;;;;;;;;;;;19.85;nan;100607.81;4980789;28;20084;-75
2021/09/17 06:43:31;;;;;;;;;;;;;;;20.31;nan;100606.00;4983990;28;19972;-75
2021/09/17 06:45:57;;;;;;;;;;;;;;;20.65;nan;100612.88;4989324;28;19964;-75
2021/09/17 06:48:22;;;;;;;;;;;;;;;20.87;nan;100617.91;4989969;28;20452;-75
2021/09/17 06:50:47;;;;;;;;;;;;;;;20.69;nan;100607.88;4990163;28;19914;-75
2021/09/17 06:53:12;;;;;;;;;;;;;;;20.87;nan;100604.47;4984089;28;19918;-75
2021/09/17 06:55:38;;;;;;;;;;;;;;;21.04;nan;100602.06;4974939;28;19921;-75
2021/09/17 06:58:04;;;;;;;;;;;;;;;20.69;nan;100600.66;4991861;28;19914;-75
2021/09/17 07:00:30;;;;;;;;;;;;;;;21.25;nan;100601.66;4991765;28;19920;-75
2021/09/17 07:02:57;;;;;;;;;;;;;;;21.50;nan;100603.53;4991562;28;19932;-75
2021/09/17 07:05:23;;;;;;;;;;;;;;;21.51;nan;100615.97;4969786;28;19988;-75
2021/09/17 07:07:48;;;;;;;;;;;;;;;21.47;nan;100614.75;4986213;28;19924;-75
2021/09/17 07:10:17;;;;;;;;;;;;;;;21.73;nan;100613.66;4991273;28;19992;-75
2021/09/17 07:12:42;;;;;;;;;;;;;;;21.58;nan;100606.78;4990948;28;19918;-75
2021/09/17 07:15:08;;;;;;;;;;;;;;;22.29;nan;100620.72;4986834;28;19913;-75
2021/09/17 07:17:33;;;;;;;;;;;;;;;22.47;nan;100622.53;4973028;28;20440;-75
2021/09/17 07:19:58;;;;;;;;;;;;;;;22.73;nan;100615.94;4990807;28;20225;-75
2021/09/17 07:22:24;;;;;;;;;;;;;;;23.14;nan;100621.56;4991293;28;20000;-75
2021/09/17 07:24:49;;;;;;;;;;;;;;;23.09;nan;100614.19;4991717;28;20545;-76
2021/09/17 07:27:14;;;;;;;;;;;;;;;23.38;nan;100609.75;4990841;28;19909;-76
2021/09/17 07:29:40;;;;;;;;;;;;;;;23.66;nan;100610.91;4991317;28;19917;-76
2021/09/17 07:32:06;;;;;;;;;;;;;;;23.74;nan;100611.41;4989341;28;19924;-76
2021/09/17 07:34:31;;;;;;;;;;;;;;;24.06;nan;100608.28;4990771;28;20012;-76
2021/09/17 07:36:56;;;;;;;;;;;;;;;24.38;nan;100614.06;4987718;28;19914;-76
2021/09/17 07:39:21;;;;;;;;;;;;;;;24.18;nan;100608.25;4989113;28;20008;-76
2021/09/17 07:41:47;;;;;;;;;;;;;;;24.14;nan;100605.19;4989587;28;19913;-75
2021/09/17 07:44:12;;;;;;;;;;;;;;;24.34;nan;100612.09;4991196;28;20278;-76
2021/09/17 07:46:37;;;;;;;;;;;;;;;24.27;nan;100609.53;4983178;28;19940;-76
2021/09/17 07:49:02;;;;;;;;;;;;;;;24.05;nan;100601.25;4983253;28;19918;-76
2021/09/17 07:51:28;;;;;;;;;;;;;;;24.08;nan;100610.75;4990548;28;20381;-76
2021/09/17 07:53:53;;;;;;;;;;;;;;;23.92;nan;100605.03;4973214;28;20429;-75
2021/09/17 07:56:18;;;;;;;;;;;;;;;24.55;nan;100608.72;4990824;28;20290;-76
2021/09/17 07:58:43;;;;;;;;;;;;;;;24.55;nan;100611.44;4971963;28;20274;-76
2021/09/17 08:01:09;;;;;;;;;;;;;;;23.92;nan;100604.22;4988201;28;19965;-76
2021/09/17 08:03:34;;;;;;;;;;;;;;;24.93;nan;100607.22;4988355;28;19918;-76
2021/09/17 08:05:59;;;;;;;;;;;;;;;25.57;nan;100615.00;4990761;28;20173;-76
2021/09/17 08:08:25;;;;;;;;;;;;;;;25.32;nan;100618.16;4991288;28;19909;-76
2021/09/17 08:10:50;;;;;;;;;;;;;;;25.74;nan;100617.69;4991161;28;19968;-76
2021/09/17 08:13:15;;;;;;;;;;;;;;;26.24;nan;100610.44;4990667;28;20049;-76
2021/09/17 08:15:41;;;;;;;;;;;;;;;25.99;nan;100628.06;4988251;28;19914;-76
2021/09/17 08:18:06;;;;;;;;;;;;;;;25.51;nan;100617.91;4985783;28;19925;-76
2021/09/17 08:20:31;;;;;;;;;;;;;;;25.24;nan;100615.84;4994642;28;19914;-76
2021/09/17 08:22:56;;;;;;;;;;;;;;;26.24;nan;100613.16;4972626;28;19918;-76
2021/09/17 08:25:22;;;;;;;;;;;;;;;26.54;nan;100617.31;4990853;28;19968;-76
2021/09/17 08:27:47;;;;;;;;;;;;;;;26.66;nan;100620.69;4967141;28;20000;-76
2021/09/17 08:30:12;;;;;;;;;;;;;;;27.45;nan;100609.13;4990277;28;20349;-76
2021/09/17 08:32:39;;;;;;;;;;;;;;;27.62;nan;100606.22;4990483;28;19921;-76
2021/09/17 08:35:05;;;;;;;;;;;;;;;27.28;nan;100611.19;4973198;28;20494;-76
2021/09/17 08:37:30;;;;;;;;;;;;;;;27.95;nan;100612.41;4990573;28;20264;-76
2021/09/17 08:39:55;;;;;;;;;;;;;;;28.08;nan;100602.94;4989997;28;19921;-76
2021/09/17 08:42:20;;;;;;;;;;;;;;;28.07;nan;100609.47;4989064;28;19918;-73
2021/09/17 08:44:46;;;;;;;;;;;;;;;28.17;nan;100606.75;4990185;28;19914;-73
2021/09/17 08:47:14;;;;;;;;;;;;;;;28.76;nan;100605.56;4989444;28;19917;-73
2021/09/17 08:49:40;;;;;;;;;;;;;;;29.55;nan;100608.78;4990657;28;20081;-73
2021/09/17 08:52:05;;;;;;;;;;;;;;;29.53;nan;100606.34;4972969;28;19914;-73
2021/09/17 08:54:30;;;;;;;;;;;;;;;29.49;nan;100607.97;4990217;28;20359;-73
2021/09/17 08:56:56;;;;;;;;;;;;;;;30.38;nan;100610.94;4990730;28;19914;-74
2021/09/17 08:59:21;;;;;;;;;;;;;;;30.21;nan;100608.53;4989885;28;19914;-74
2021/09/17 09:01:47;;;;;;;;;;;;;;;30.38;nan;100612.84;4988059;28;19922;-74
2021/09/17 09:04:13;;;;;;;;;;;;;;;30.14;nan;100605.31;4984110;28;20210;-73
2021/09/17 09:06:39;;;;;;;;;;;;;;;30.32;nan;100606.63;4990285;28;19960;-74
2021/09/17 09:09:15;;;;;;;;;;;;;;;30.39;nan;100603.56;4991745;28;20158;-73
2021/09/17 09:11:40;;;;;;;;;;;;;;;29.80;nan;100600.56;4973049;28;19917;-74
2021/09/17 09:14:07;;;;;;;;;;;;;;;28.88;nan;100595.22;4973865;28;19977;-74
2021/09/17 09:16:43;;;;;;;;;;;;;;;29.92;nan;100607.59;4992448;28;19969;-73
2021/09/17 09:19:37;;;;;;;;;;;;;;;30.15;nan;100596.03;4991606;28;19993;-74
2021/09/17 09:22:02;;;;;;;;;;;;;;;29.91;nan;100595.88;4987517;28;19917;-73
2021/09/17 09:24:28;;;;;;;;;;;;;;;30.14;nan;100591.66;4992140;28;20290;-73
2021/09/17 09:27:12;;;;;;;;;;;;;;;29.05;nan;100588.69;4993716;28;19921;-74
2021/09/17 09:29:38;;;;;;;;;;;;;;;28.52;nan;100588.94;4996662;28;20109;-74
2021/09/17 09:32:03;;;;;;;;;;;;;;;28.38;nan;100589.41;4996006;28;19957;-74
2021/09/17 09:34:52;;;;;;;;;;;;;;;27.82;nan;100585.69;4995513;28;19913;-74
2021/09/17 09:37:18;;;;;;;;;;;;;;;26.78;nan;100588.78;4994880;28;19945;-73
2021/09/17 09:39:50;;;;;;;;;;;;;;;26.34;nan;100583.47;4978563;28;20118;-73
2021/09/17 09:42:18;;;;;;;;;;;;;;;26.90;nan;100581.28;4995592;28;20376;-74
2021/09/17 09:45:03;;;;;;;;;;;;;;;25.62;nan;100574.47;4993881;28;19917;-73
2021/09/17 09:47:32;;;;;;;;;;;;;;;25.49;nan;100574.81;4993532;28;20391;-74
2021/09/17 09:50:08;;;;;;;;;;;;;;;25.12;nan;100569.09;4996205;28;19969;-73
2021/09/17 09:52:33;;;;;;;;;;;;;;;24.70;nan;100572.22;4994074;28;19925;-74
2021/09/17 09:54:58;;;;;;;;;;;;;;;25.45;nan;100567.44;4995467;28;19910;-75
2021/09/17 09:57:24;;;;;;;;;;;;;;;25.66;nan;100565.84;4994662;28;20314;-74
2021/09/17 09:59:51;;;;;;;;;;;;;;;25.05;nan;100563.88;4994195;28;19914;-74
2021/09/17 10:02:17;;;;;;;;;;;;;;;24.88;nan;100563.03;4993700;28;20020;-74
2021/09/17 10:04:43;;;;;;;;;;;;;;;25.22;nan;100563.88;4976142;28;20128;-74
2021/09/17 10:07:09;;;;;;;;;;;;;;;24.85;nan;100556.22;4993938;28;20072;-74
2021/09/17 10:09:36;;;;;;;;;;;;;;;24.09;nan;100556.47;4993826;28;19913;-74
2021/09/17 10:12:02;;;;;;;;;;;;;;;24.27;nan;100563.59;4993309;28;20008;-74
2021/09/17 10:14:28;;;;;;;;;;;;;;;24.33;nan;100550.97;4991894;28;20326;-73
2021/09/17 10:16:54;;;;;;;;;;;;;;;23.75;nan;100550.13;4993083;28;19960;-74
2021/09/17 10:19:20;;;;;;;;;;;;;;;23.29;nan;100551.81;4993234;28;19922;-74
2021/09/17 10:21:46;;;;;;;;;;;;;;;23.24;nan;100555.22;4989097;28;20063;-74
2021/09/17 10:24:26;;;;;;;;;;;;;;;23.11;nan;100536.56;4972059;28;20008;-74
2021/09/17 10:26:54;;;;;;;;;;;;;;;23.25;nan;100547.94;4991350;28;19913;-73
2021/09/17 10:29:29;;;;;;;;;;;;;;;23.19;nan;100543.47;4990418;28;19972;-76
2021/09/17 10:31:59;;;;;;;;;;;;;;;23.46;nan;100541.94;4984132;28;19913;-76
2021/09/17 10:34:34;;;;;;;;;;;;;;;23.47;nan;100542.75;4991427;28;19914;-76
2021/09/17 10:37:00;;;;;;;;;;;;;;;23.17;nan;100540.19;4992383;28;19913;-73
2021/09/17 10:39:25;;;;;;;;;;;;;;;22.88;nan;100545.41;4989187;28;19936;-73
2021/09/17 10:42:10;;;;;;;;;;;;;;;22.89;nan;100547.88;4991625;28;19918;-74
2021/09/17 10:44:54;;;;;;;;;;;;;;;22.74;nan;100538.59;4989138;28;20004;-74
2021/09/17 10:47:38;;;;;;;;;;;;;;;22.90;nan;100543.31;4990312;28;19920;-73
2021/09/17 10:50:04;;;;;;;;;;;;;;;22.92;nan;100538.50;4982762;28;19925;-76
2021/09/17 10:52:39;;;;;;;;;;;;;;;23.13;nan;100539.84;4991076;28;20008;-76
2021/09/17 10:55:05;;;;;;;;;;;;;;;23.04;nan;100533.16;4990872;28;19913;-74
2021/09/17 10:57:30;;;;;;;;;;;;;;;23.06;nan;100531.84;4988426;28;20374;-73
2021/09/17 10:59:55;;;;;;;;;;;;;;;23.18;nan;100533.75;4974584;28;19914;-74
2021/09/17 11:02:38;;;;;;;;;;;;;;;22.91;nan;100528.78;4990626;28;20334;-74
2021/09/17 11:05:14;;;;;;;;;;;;;;;22.82;nan;100528.28;4991946;28;19913;-74
2021/09/17 11:07:39;;;;;;;;;;;;;;;23.16;nan;100525.06;4985043;28;19914;-74
2021/09/17 11:10:05;;;;;;;;;;;;;;;23.38;nan;100531.47;4991809;28;19984;-73
2021/09/17 11:12:32;;;;;;;;;;;;;;;23.12;nan;100524.72;4991832;28;19992;-74
2021/09/17 11:15:12;;;;;;;;;;;;;;;23.09;nan;100526.00;4988904;28;20393;-74
2021/09/17 11:17:45;;;;;;;;;;;;;;;22.44;nan;100524.13;4967560;28;19937;-74
2021/09/17 11:20:15;;;;;;;;;;;;;;;22.54;nan;100518.16;4991608;28;20049;-73
2021/09/17 11:22:53;;;;;;;;;;;;;;;22.25;nan;100515.28;4995350;28;20008;-73
2021/09/17 11:25:22;;;;;;;;;;;;;;;21.85;nan;100514.97;4991659;28;20322;-73
2021/09/17 11:27:48;;;;;;;;;;;;;;;21.82;nan;100516.22;4991163;28;19913;-74
2021/09/17 11:30:13;;;;;;;;;;;;;;;21.42;nan;100521.25;4991538;28;20286;-74
2021/09/17 11:32:39;;;;;;;;;;;;;;;21.16;nan;100520.44;4990360;28;19914;-74
2021/09/17 11:35:07;;;;;;;;;;;;;;;20.84;nan;100519.72;4991951;28;20338;-76
2021/09/17 11:37:33;;;;;;;;;;;;;;;20.77;nan;100524.31;4973294;28;19936;-76
2021/09/17 11:40:05;;;;;;;;;;;;;;;20.61;nan;100525.66;4991822;28;19909;-76
2021/09/17 11:42:31;;;;;;;;;;;;;;;20.62;nan;100518.44;4973612;28;20024;-76
2021/09/17 11:44:56;;;;;;;;;;;;;;;20.46;nan;100517.91;4991528;28;20330;-76
2021/09/17 11:47:23;;;;;;;;;;;;;;;20.26;nan;100518.03;4991325;28;19914;-76
2021/09/17 11:49:48;;;;;;;;;;;;;;;20.09;nan;100516.88;4991355;28;19913;-76
2021/09/17 11:52:18;;;;;;;;;;;;;;;20.06;nan;100512.75;4990899;28;19925;-76
2021/09/17 11:54:56;;;;;;;;;;;;;;;19.96;nan;100517.78;4991145;28;19913;-76
2021/09/17 11:57:27;;;;;;;;;;;;;;;19.81;nan;100514.56;4990881;28;19960;-76
2021/09/17 11:59:52;;;;;;;;;;;;;;;19.73;nan;100513.75;4991134;28;19965;-76
2021/09/17 12:02:19;;;;;;;;;;;;;;;19.66;nan;100515.63;4986066;28;19975;-76
2021/09/17 12:04:49;;;;;;;;;;;;;;;19.65;nan;100516.63;4991241;28;19925;-76
2021/09/17 12:07:14;;;;;;;;;;;;;;;19.60;nan;100513.75;4990732;28;19914;-76
2021/09/17 12:09:40;;;;;;;;;;;;;;;19.64;nan;100512.31;4990746;28;20378;-76
2021/09/17 12:12:05;;;;;;;;;;;;;;;19.68;nan;100515.41;4990856;28;19921;-76
2021/09/17 12:14:31;;;;;;;;;;;;;;;19.69;nan;100509.84;4986227;28;19924;-76
2021/09/17 12:17:05;;;;;;;;;;;;;;;19.70;nan;100518.72;4973125;28;19992;-76
2021/09/17 12:19:50;;;;;;;;;;;;;;;19.68;nan;100505.50;4990330;28;20001;-77
2021/09/17 12:22:25;;;;;;;;;;;;;;;19.65;nan;100513.13;4986557;28;19918;-76
2021/09/17 12:24:59;;;;;;;;;;;;;;;19.60;nan;100508.41;4990733;28;19992;-76
2021/09/17 12:27:28;;;;;;;;;;;;;;;19.71;nan;100510.47;4987422;28;20016;-76
2021/09/17 12:30:05;;;;;;;;;;;;;;;19.71;nan;100507.78;4987538;28;20005;-76
2021/09/17 12:32:30;;;;;;;;;;;;;;;19.78;nan;100509.59;4987467;28;19920;-76
2021/09/17 12:35:04;;;;;;;;;;;;;;;19.81;nan;100507.31;4990812;28;19914;-76
2021/09/17 12:37:29;;;;;;;;;;;;;;;19.92;nan;100500.44;4987107;28;19932;-76
2021/09/17 12:40:15;;;;;;;;;;;;;;;19.99;nan;100501.25;4993695;28;20371;-76
2021/09/17 12:42:41;;;;;;;;;;;;;;;20.14;nan;100501.78;4988872;28;20531;-76
2021/09/17 12:45:08;;;;;;;;;;;;;;;20.31;nan;100491.34;4994936;28;19961;-76
2021/09/17 12:47:34;;;;;;;;;;;;;;;20.44;nan;100495.81;4975906;28;19995;-76
2021/09/17 12:50:10;;;;;;;;;;;;;;;20.51;nan;100488.53;4987060;28;20370;-76
2021/09/17 12:52:37;;;;;;;;;;;;;;;20.59;nan;100482.06;4990971;28;19964;-76
2021/09/17 12:55:02;;;;;;;;;;;;;;;20.73;nan;100483.63;4994489;28;19917;-76